KAIK/AIK METAR and TAF weather

Enter ICAO airport designator
Station Type Date Time Source
KAIK METAR 2024/07/23 17:55 UTC NOAA

KAIK 231755Z AUTO 23009KT 10SM SCT027 BKN050 OVC110 31/22 A3013 RMK AO2 T03090221 10334 20249


Station Type Date Time Source
KAIK Decoded METAR 2024/07/23 17:55 UTC NOAA

Station name not available
Jul 23, 2024 - 01:55 PM EDT / 2024.07.23 1755 UTC
Wind: from the SW (230 degrees) at 10 MPH (9 KT):0
Visibility: 10 mile(s):0
Sky conditions: overcast
Temperature: 87.6 F (30.9 C)
Heat index: 93.9 F (34.4 C):1
Dew Point: 71.8 F (22.1 C)
Relative Humidity: 59%
Pressure (altimeter): 30.13 in. Hg (1020 hPa)
ob: KAIK 231755Z AUTO 23009KT 10SM SCT027 BKN050 OVC110 31/22 A3013 RMK AO2 T03090221 10334 20249
cycle: 18

Station Type Date Time Source
KAIK TAF UTC NOAA

Error!

Example: see airport list